.
WxDataArchive / Data Records for 2014-04-02
2014-04-01 April 2014 2014-04-03

Data Records for Wednesday, 02 April 2014

Time	Temp	Chill	HIndex	Humid	Dewpt	 Wind 	HiWind	WindDir	Rain 	Barom
-----	----	-----	------	-----	-----	------	------	-------	-----	-----
00:00	47.3	47.3	47.3	51	30.1	1	3	270	0.00	30.049 
00:05	47.3	47.3	47.3	51	30.1	2	5	248	0.00	30.049 
00:10	47.1	47.1	47.1	52	30.4	1	5	270	0.00	30.049 
00:15	47.0	47.0	47.0	52	30.3	1	4	270	0.00	30.051 
00:20	47.0	47.0	47.0	52	30.3	1	4	270	0.00	30.051 
00:25	46.8	46.8	46.8	52	30.1	1	4	270	0.00	30.051 
00:30	46.8	46.8	46.8	52	30.1	1	3	270	0.00	30.042 
00:35	46.7	46.7	46.7	52	30.0	1	3	270	0.00	30.042 
00:40	46.5	46.5	46.5	53	30.3	1	2	270	0.00	30.042 
00:45	46.5	46.5	46.5	53	30.3	0	3	270	0.00	30.037 
00:50	46.4	46.4	46.4	53	30.2	1	3	270	0.00	30.037 
00:55	46.2	46.2	46.2	53	30.0	1	3	270	0.00	30.037 
01:00	46.2	46.2	46.2	53	30.0	1	2	315	0.00	30.041 
01:05	46.1	46.1	46.1	53	29.9	1	5	338	0.00	30.041 
01:10	46.0	46.0	46.0	53	29.8	0	2	338	0.00	30.041 
01:15	45.8	45.8	45.8	54	30.1	0	2	338	0.00	30.040 
01:20	45.8	45.8	45.8	54	30.1	0	3	270	0.00	30.040 
01:25	45.7	45.7	45.7	54	30.0	1	2	270	0.00	30.040 
01:30	45.7	45.7	45.7	54	30.0	1	3	292	0.00	30.043 
01:35	45.5	45.5	45.5	54	29.8	0	3	292	0.00	30.043 
01:40	45.5	45.5	45.5	54	29.8	1	4	315	0.00	30.043 
01:45	45.5	45.5	45.5	54	29.8	1	3	315	0.00	30.046 
01:50	45.4	45.4	45.4	54	29.7	0	2	270	0.00	30.046 
01:55	45.4	45.4	45.4	54	29.7	1	4	292	0.00	30.046 
02:00	45.4	45.4	45.4	54	29.7	0	2	292	0.00	30.041 
02:05	45.2	45.2	45.2	54	29.6	0	1	292	0.00	30.041 
02:10	45.2	45.2	45.2	54	29.6	1	3	292	0.00	30.041 
02:15	45.1	45.1	45.1	54	29.5	0	2	292	0.00	30.044 
02:20	45.1	45.1	45.1	54	29.5	0	2	292	0.00	30.044 
02:25	44.9	44.9	44.9	54	29.3	0	1	292	0.00	30.044 
02:30	44.8	44.8	44.8	54	29.2	0	1	292	0.00	30.049 
02:35	44.6	44.6	44.6	54	29.0	0	1	292	0.00	30.049 
02:40	44.6	44.6	44.6	54	29.0	0	1	292	0.00	30.049 
02:45	44.6	44.6	44.6	55	29.4	0	1	292	0.00	30.051 
02:50	44.5	44.5	44.5	55	29.3	0	1	292	0.00	30.051 
02:55	44.3	44.3	44.3	56	29.6	0	0	---	0.00	30.051 
03:00	44.2	44.2	44.2	56	29.5	0	0	---	0.00	30.061 
03:05	44.1	44.1	44.1	56	29.4	0	0	---	0.00	30.061 
03:10	43.9	43.9	43.9	57	29.7	0	0	---	0.00	30.061 
03:15	43.9	43.9	43.9	57	29.7	0	0	---	0.00	30.059 
03:20	43.8	43.8	43.8	58	30.0	0	0	---	0.00	30.059 
03:25	43.8	43.8	43.8	57	29.6	0	1	292	0.00	30.059 
03:30	43.9	43.9	43.9	57	29.7	0	1	292	0.00	30.067 
03:35	43.9	43.9	43.9	57	29.7	0	0	---	0.00	30.067 
03:40	43.9	43.9	43.9	58	30.1	0	1	292	0.00	30.067 
03:45	43.8	43.8	43.8	57	29.6	0	0	---	0.00	30.059 
03:50	43.8	43.8	43.8	57	29.6	0	0	---	0.00	30.059 
03:55	43.8	43.8	43.8	58	30.0	0	1	292	0.00	30.059 
04:00	43.8	43.8	43.8	58	30.0	0	1	292	0.00	30.058 
04:05	43.8	43.8	43.8	58	30.0	0	1	292	0.00	30.058 
04:10	43.6	43.6	43.6	58	29.8	0	1	292	0.00	30.058 
04:15	43.6	43.6	43.6	58	29.8	0	1	292	0.00	30.054 
04:20	43.6	43.6	43.6	58	29.8	0	0	---	0.00	30.054 
04:25	43.5	43.5	43.5	59	30.1	0	0	---	0.00	30.054 
04:30	43.5	43.5	43.5	59	30.1	0	1	292	0.00	30.065 
04:35	43.3	43.3	43.3	59	29.9	0	0	---	0.00	30.065 
04:40	43.3	43.3	43.3	59	29.9	0	0	---	0.00	30.065 
04:45	43.2	43.2	43.2	59	29.9	0	1	292	0.00	30.072 
04:50	43.1	43.1	43.1	59	29.8	0	0	---	0.00	30.072 
04:55	42.9	42.9	42.9	60	30.0	0	0	---	0.00	30.072 
05:00	42.8	42.8	42.8	60	29.9	0	0	---	0.00	30.073 
05:05	42.8	42.8	42.8	60	29.9	0	0	---	0.00	30.073 
05:10	42.5	42.5	42.5	61	30.0	0	0	---	0.00	30.073 
05:15	42.3	42.3	42.3	61	29.8	0	0	---	0.00	30.073 
05:20	42.1	42.1	42.1	61	29.6	0	0	---	0.00	30.073 
05:25	41.8	41.8	41.8	62	29.7	0	0	---	0.00	30.073 
05:30	41.5	41.5	41.5	63	29.9	0	0	---	0.00	30.078 
05:35	41.2	41.2	41.2	64	30.0	0	0	---	0.00	30.078 
05:40	40.8	40.8	40.8	64	29.6	0	0	---	0.00	30.078 
05:45	40.3	40.3	40.3	65	29.5	0	0	---	0.00	30.076 
05:50	40.1	40.1	40.1	65	29.3	0	0	---	0.00	30.076 
05:55	39.8	39.8	39.8	66	29.4	0	0	---	0.00	30.076 
06:00	39.5	39.5	39.5	67	29.5	0	0	---	0.00	30.076 
06:05	39.3	39.3	39.3	69	30.0	0	0	---	0.00	30.076 
06:10	39.1	39.1	39.1	70	30.2	0	0	---	0.00	30.076 
06:15	38.9	38.9	38.9	70	30.0	0	0	---	0.00	30.081 
06:20	38.6	38.6	38.6	70	29.7	0	0	---	0.00	30.081 
06:25	38.3	38.3	38.3	71	29.7	0	0	---	0.00	30.081 
06:30	38.0	38.0	38.0	71	29.4	0	0	---	0.00	30.091 
06:35	37.9	37.9	37.9	72	29.7	0	0	---	0.00	30.091 
06:40	37.8	37.8	37.8	73	29.9	0	0	---	0.00	30.091 
06:45	37.8	37.8	37.8	74	30.3	0	0	---	0.00	30.097 
06:50	37.6	37.6	37.6	74	30.1	0	0	---	0.00	30.097 
06:55	37.6	37.6	37.6	75	30.4	0	0	---	0.00	30.097 
07:00	37.6	37.6	37.6	75	30.4	0	0	---	0.00	30.104 
07:05	37.6	37.6	37.6	76	30.7	0	0	---	0.00	30.104 
07:10	37.6	37.6	37.6	76	30.7	0	0	---	0.00	30.104 
07:15	37.5	37.5	37.5	76	30.6	0	0	---	0.00	30.112 
07:20	37.5	37.5	37.5	76	30.6	0	0	---	0.00	30.112 
07:25	37.5	37.5	37.5	76	30.6	0	0	---	0.00	30.112 
07:30	37.3	37.3	37.3	76	30.4	0	0	---	0.00	30.115 
07:35	37.3	37.3	37.3	76	30.4	0	0	---	0.00	30.115 
07:40	37.3	37.3	37.3	77	30.8	0	0	---	0.00	30.115 
07:45	37.3	37.3	37.3	77	30.8	0	0	---	0.00	30.125 
07:50	37.3	37.3	37.3	78	31.1	0	0	---	0.00	30.125 
07:55	37.5	37.5	37.5	78	31.3	0	0	---	0.00	30.125 
08:00	37.5	37.5	37.5	79	31.6	0	0	---	0.00	30.130 
08:05	37.6	37.6	37.6	79	31.7	0	0	---	0.00	30.130 
08:10	37.6	37.6	37.6	79	31.7	0	0	---	0.00	30.130 
08:15	37.8	37.8	37.8	79	31.9	0	0	---	0.00	30.142 
08:20	37.9	37.9	37.9	79	32.0	0	0	---	0.00	30.142 
08:25	38.2	38.2	38.2	79	32.3	0	0	---	0.00	30.142 
08:30	38.6	38.6	38.6	78	32.3	0	0	---	0.00	30.128 
08:35	38.9	38.9	38.9	79	33.0	0	0	---	0.00	30.128 
08:40	39.3	39.3	39.3	78	33.0	0	0	---	0.00	30.128 
08:45	39.6	39.6	39.6	78	33.3	0	0	---	0.00	30.138 
08:50	40.2	40.2	40.2	78	33.9	0	0	---	0.00	30.138 
08:55	40.6	40.6	40.6	77	34.0	0	0	---	0.00	30.138 
09:00	41.1	41.1	41.1	77	34.4	0	0	---	0.00	30.129 
09:05	41.6	41.6	41.6	75	34.3	0	1	292	0.00	30.129 
09:10	42.1	42.1	42.1	71	33.4	0	3	292	0.00	30.129 
09:15	42.5	42.5	42.5	66	32.0	0	2	135	0.00	30.129 
09:20	43.1	43.1	43.1	64	31.8	0	2	135	0.00	30.129 
09:25	43.5	43.5	43.5	62	31.4	1	4	135	0.00	30.129 
09:30	43.8	43.8	43.8	61	31.2	0	3	135	0.00	30.139 
09:35	44.1	44.1	44.1	59	30.7	0	1	135	0.00	30.139 
09:40	44.2	44.2	44.2	57	29.9	0	2	135	0.00	30.139 
09:45	44.3	44.3	44.3	55	29.2	0	2	135	0.00	30.139 
09:50	44.8	44.8	44.8	56	30.1	0	2	135	0.00	30.139 
09:55	45.2	45.2	45.2	55	30.0	0	1	135	0.00	30.139 
10:00	45.7	45.7	45.7	54	30.0	1	4	135	0.00	30.138 
10:05	46.1	46.1	46.1	54	30.4	0	2	135	0.00	30.138 
10:10	46.5	46.5	46.5	54	30.8	0	2	135	0.00	30.138 
10:15	46.8	46.8	46.8	54	31.0	0	3	135	0.00	30.140 
10:20	47.4	47.4	47.4	52	30.7	1	4	135	0.00	30.140 
10:25	48.2	48.2	48.2	51	30.9	1	4	112	0.00	30.140 
10:30	48.2	48.2	48.2	51	30.9	1	4	112	0.00	30.139 
10:35	48.3	48.3	48.3	51	31.0	0	3	112	0.00	30.139 
10:40	48.5	48.5	48.5	51	31.2	2	6	90	0.00	30.139 
10:45	48.5	48.5	48.5	51	31.2	1	4	90	0.00	30.137 
10:50	48.8	48.8	48.8	52	32.0	0	1	90	0.00	30.137 
10:55	49.1	49.1	49.1	49	30.8	2	5	90	0.00	30.137 
11:00	49.1	49.1	49.1	51	31.8	1	3	90	0.00	30.142 
11:05	49.6	49.6	49.6	49	31.2	1	5	90	0.00	30.142 
11:10	49.8	49.8	49.8	50	31.9	1	3	90	0.00	30.142 
11:15	50.4	50.4	50.4	48	31.5	1	3	90	0.00	30.143 
11:20	50.8	50.8	50.8	47	31.3	2	4	112	0.00	30.143 
11:25	51.0	51.0	51.0	47	31.5	1	3	112	0.00	30.143 
11:30	51.1	51.1	51.1	46	31.0	2	7	90	0.00	30.134 
11:35	51.3	51.3	51.3	48	32.3	1	4	90	0.00	30.134 
11:40	51.7	51.7	51.7	48	32.6	0	2	90	0.00	30.134 
11:45	52.5	52.5	52.5	45	31.8	1	4	90	0.00	30.133 
11:50	52.8	52.8	52.8	45	32.1	1	3	135	0.00	30.133 
11:55	53.1	53.1	53.1	46	32.9	1	3	135	0.00	30.133 
12:00	53.3	53.3	53.3	46	33.1	1	3	135	0.00	30.122 
12:05	53.5	53.5	53.5	43	31.6	2	6	135	0.00	30.122 
12:10	53.6	53.6	53.6	44	32.2	0	2	90	0.00	30.122 
12:15	53.8	53.8	53.8	43	31.8	0	3	90	0.00	30.130 
12:20	53.9	53.9	53.9	42	31.3	1	3	90	0.00	30.130 
12:25	54.1	54.1	54.1	42	31.5	1	3	90	0.00	30.130 
12:30	54.5	54.5	54.5	42	31.9	0	2	90	0.00	30.131 
12:35	55.1	55.1	55.1	43	33.0	0	2	90	0.00	30.131 
12:40	55.6	55.6	55.6	43	33.5	0	2	90	0.00	30.131 
12:45	55.7	55.7	55.7	40	31.8	0	2	90	0.00	30.130 
12:50	55.7	55.7	55.7	41	32.4	0	2	90	0.00	30.130 
12:55	55.9	55.9	55.9	40	31.9	1	3	90	0.00	30.130 
13:00	55.9	55.9	55.9	42	33.1	0	2	90	0.00	30.131 
13:05	55.9	55.9	55.9	40	31.9	1	3	90	0.00	30.131 
13:10	55.7	55.7	55.7	41	32.4	1	3	112	0.00	30.131 
13:15	55.4	55.4	55.4	40	31.5	1	3	112	0.00	30.123 
13:20	55.1	55.1	55.1	41	31.8	1	3	112	0.00	30.123 
13:25	55.1	55.1	55.1	43	33.0	1	5	112	0.00	30.123 
13:30	55.4	55.4	55.4	41	32.1	1	3	112	0.00	30.119 
13:35	55.7	55.7	55.7	42	33.0	1	4	90	0.00	30.119 
13:40	56.0	56.0	56.0	41	32.6	2	4	112	0.00	30.119 
13:45	56.2	56.2	56.2	41	32.8	2	5	112	0.00	30.115 
13:50	56.0	56.0	56.0	41	32.6	1	4	90	0.00	30.115 
13:55	56.0	56.0	56.0	41	32.6	0	2	90	0.00	30.115 
14:00	56.3	56.3	56.3	45	35.2	0	2	90	0.00	30.108 
14:05	56.6	56.6	56.6	43	34.4	0	3	90	0.00	30.108 
14:10	56.7	56.7	56.7	41	33.3	0	2	90	0.00	30.108 
14:15	57.0	57.0	57.0	41	33.5	0	3	90	0.00	30.112 
14:20	57.2	57.2	57.2	39	32.5	1	4	90	0.00	30.112 
14:25	57.2	57.2	57.2	40	33.1	1	4	90	0.00	30.112 
14:30	57.0	57.0	57.0	39	32.3	0	2	90	0.00	30.107 
14:35	56.9	56.9	56.9	39	32.2	1	3	90	0.00	30.107 
14:40	56.7	56.7	56.7	45	35.6	1	4	90	0.00	30.107 
14:45	57.0	57.0	57.0	41	33.5	0	2	90	0.00	30.105 
14:50	57.6	57.6	57.6	39	32.8	0	1	90	0.00	30.105 
14:55	58.0	58.0	58.0	40	33.8	1	3	90	0.00	30.105 
15:00	58.0	58.0	58.0	38	32.5	1	3	90	0.00	30.097 
15:05	57.8	57.8	57.8	39	33.0	0	1	90	0.00	30.097 
15:10	58.1	58.1	58.1	40	33.9	0	1	90	0.00	30.097 
15:15	58.0	58.0	58.0	39	33.2	2	5	112	0.00	30.096 
15:20	57.6	57.6	57.6	40	33.5	0	1	112	0.00	30.096 
15:25	58.0	58.0	58.0	39	33.2	0	3	112	0.00	30.096 
15:30	58.1	58.1	58.1	39	33.3	0	2	112	0.00	30.096 
15:35	58.3	58.3	58.3	41	34.7	1	6	90	0.00	30.096 
15:40	58.3	58.3	58.3	40	34.1	0	3	90	0.00	30.096 
15:45	58.3	58.3	58.3	39	33.5	0	2	90	0.00	30.092 
15:50	58.3	58.3	58.3	41	34.7	0	3	90	0.00	30.092 
15:55	58.3	58.3	58.3	42	35.3	1	4	90	0.00	30.092 
16:00	58.4	58.4	58.4	42	35.4	1	3	90	0.00	30.083 
16:05	58.3	58.3	58.3	39	33.5	2	5	90	0.00	30.083 
16:10	58.1	58.1	58.1	41	34.5	1	3	112	0.00	30.083 
16:15	58.1	58.1	58.1	39	33.3	0	4	112	0.00	30.084 
16:20	58.0	58.0	58.0	39	33.2	0	4	112	0.00	30.084 
16:25	57.8	57.8	57.8	42	34.9	0	2	112	0.00	30.084 
16:30	57.6	57.6	57.6	42	34.7	0	2	112	0.00	30.070 
16:35	57.8	57.8	57.8	41	34.3	0	3	112	0.00	30.070 
16:40	57.6	57.6	57.6	42	34.7	2	4	112	0.00	30.070 
16:45	57.8	57.8	57.8	43	35.5	0	1	112	0.00	30.068 
16:50	57.8	57.8	57.8	43	35.5	1	6	112	0.00	30.068 
16:55	57.6	57.6	57.6	42	34.7	2	5	112	0.00	30.068 
17:00	57.6	57.6	57.6	43	35.3	1	4	90	0.00	30.071 
17:05	57.5	57.5	57.5	43	35.2	1	4	90	0.00	30.071 
17:10	57.2	57.2	57.2	42	34.3	2	6	90	0.00	30.071 
17:15	57.0	57.0	57.0	43	34.7	1	4	90	0.00	30.076 
17:20	56.9	56.9	56.9	42	34.0	1	4	90	0.00	30.076 
17:25	56.9	56.9	56.9	43	34.6	1	3	90	0.00	30.076 
17:30	56.7	56.7	56.7	43	34.5	1	3	112	0.00	30.071 
17:35	56.5	56.5	56.5	42	33.7	1	3	112	0.00	30.071 
17:40	56.5	56.5	56.5	44	34.9	0	2	112	0.00	30.071 
17:45	56.0	56.0	56.0	45	35.0	1	6	112	0.00	30.073 
17:50	55.7	55.7	55.7	46	35.2	0	2	22	0.00	30.073 
17:55	55.4	55.4	55.4	47	35.5	0	2	22	0.00	30.073 
18:00	55.1	55.1	55.1	47	35.2	1	6	112	0.00	30.075 
18:05	55.0	55.0	55.0	47	35.1	1	4	112	0.00	30.075 
18:10	55.0	55.0	55.0	47	35.1	0	2	112	0.00	30.075 
18:15	54.8	54.8	54.8	47	35.0	1	4	112	0.00	30.076 
18:20	54.7	54.7	54.7	48	35.4	0	3	112	0.00	30.076 
18:25	54.4	54.4	54.4	48	35.1	1	3	338	0.00	30.076 
18:30	54.2	54.2	54.2	48	34.9	1	4	90	0.00	30.077 
18:35	54.1	54.1	54.1	48	34.8	1	3	90	0.00	30.077 
18:40	53.9	53.9	53.9	48	34.7	1	7	112	0.00	30.077 
18:45	53.8	53.8	53.8	48	34.6	1	4	112	0.00	30.079 
18:50	53.6	53.6	53.6	49	34.9	0	2	112	0.00	30.079 
18:55	53.6	53.6	53.6	50	35.4	1	3	112	0.00	30.079 
19:00	53.6	53.6	53.6	50	35.4	0	3	90	0.00	30.088 
19:05	53.6	53.6	53.6	50	35.4	0	3	90	0.00	30.088 
19:10	53.5	53.5	53.5	50	35.3	1	3	90	0.00	30.088 
19:15	53.3	53.3	53.3	50	35.1	1	3	90	0.00	30.092 
19:20	53.2	53.2	53.2	50	35.0	1	3	90	0.00	30.092 
19:25	53.1	53.1	53.1	50	35.0	0	2	90	0.00	30.092 
19:30	52.8	52.8	52.8	51	35.2	0	2	90	0.00	30.090 
19:35	52.6	52.6	52.6	51	35.0	1	3	68	0.00	30.090 
19:40	52.5	52.5	52.5	51	34.9	1	3	90	0.00	30.090 
19:45	52.3	52.3	52.3	51	34.7	2	5	112	0.00	30.084 
19:50	52.3	52.3	52.3	52	35.2	1	4	112	0.00	30.084 
19:55	52.2	52.2	52.2	52	35.1	1	4	112	0.00	30.084 
20:00	52.2	52.2	52.2	53	35.6	1	4	112	0.00	30.078 
20:05	52.0	52.0	52.0	53	35.4	1	4	112	0.00	30.078 
20:10	51.9	51.9	51.9	52	34.8	2	6	112	0.00	30.078 
20:15	51.7	51.7	51.7	51	34.2	3	10	112	0.00	30.071 
20:20	51.6	51.6	51.6	51	34.1	3	8	112	0.00	30.071 
20:25	51.6	51.6	51.6	51	34.1	2	7	135	0.00	30.071 
20:30	51.3	51.3	51.3	52	34.3	2	5	112	0.00	30.074 
20:35	51.1	51.1	51.1	51	33.6	2	5	112	0.00	30.074 
20:40	51.1	51.1	51.1	52	34.1	2	5	112	0.00	30.074 
20:45	51.0	51.0	51.0	52	34.0	1	5	112	0.00	30.076 
20:50	50.8	50.8	50.8	52	33.8	1	3	90	0.00	30.076 
20:55	50.7	50.7	50.7	52	33.7	3	10	112	0.00	30.076 
21:00	50.7	50.7	50.7	52	33.7	3	7	112	0.00	30.077 
21:05	50.5	50.5	50.5	52	33.5	2	9	90	0.00	30.077 
21:10	50.4	50.4	50.4	52	33.4	2	7	112	0.00	30.077 
21:15	50.4	50.4	50.4	52	33.4	2	7	112	0.00	30.074 
21:20	50.2	50.2	50.2	52	33.3	2	7	90	0.00	30.074 
21:25	50.1	50.1	50.1	52	33.2	2	5	90	0.00	30.074 
21:30	50.1	50.1	50.1	52	33.2	1	5	68	0.00	30.079 
21:35	49.9	49.9	49.9	52	33.0	2	7	112	0.00	30.079 
21:40	49.9	49.9	49.9	51	32.5	2	6	90	0.00	30.079 
21:45	49.8	49.8	49.8	51	32.4	3	7	90	0.00	30.085 
21:50	49.8	49.8	49.8	51	32.4	1	4	112	0.00	30.085 
21:55	49.8	49.8	49.8	51	32.4	2	7	90	0.00	30.085 
22:00	49.8	49.8	49.8	51	32.4	2	7	90	0.00	30.089 
22:05	49.6	49.6	49.6	51	32.2	2	9	90	0.00	30.089 
22:10	49.6	49.6	49.6	52	32.7	1	5	112	0.00	30.089 
22:15	49.5	49.5	49.5	52	32.6	1	6	112	0.00	30.085 
22:20	49.5	49.5	49.5	50	31.6	2	7	112	0.00	30.085 
22:25	49.5	49.5	49.5	51	32.1	2	6	112	0.00	30.085 
22:30	49.5	49.5	49.5	51	32.1	3	7	112	0.00	30.080 
22:35	49.5	47.6	49.5	51	32.1	5	9	112	0.00	30.080 
22:40	49.4	49.4	49.4	51	32.0	3	7	90	0.00	30.080 
22:45	49.4	49.4	49.4	52	32.5	3	6	112	0.00	30.086 
22:50	49.2	49.2	49.2	53	32.8	2	5	112	0.00	30.086 
22:55	49.2	49.2	49.2	53	32.8	3	6	112	0.00	30.086 
23:00	49.1	49.1	49.1	53	32.7	2	6	112	0.00	30.084 
23:05	49.1	49.1	49.1	53	32.7	2	7	112	0.00	30.084 
23:10	48.9	48.9	48.9	54	33.0	3	9	90	0.00	30.084 
23:15	48.9	48.9	48.9	54	33.0	2	5	90	0.00	30.071 
23:20	48.8	48.8	48.8	54	32.9	2	5	112	0.00	30.071 
23:25	48.8	48.8	48.8	55	33.4	3	6	90	0.00	30.071 
23:30	48.8	47.5	48.8	55	33.4	4	7	90	0.00	30.069 
23:35	48.8	48.8	48.8	56	33.8	3	5	90	0.00	30.069 
23:40	48.8	48.8	48.8	56	33.8	3	8	90	0.00	30.069 
23:45	48.6	47.3	48.6	56	33.6	4	9	90	0.00	30.073 
23:50	48.6	48.6	48.6	57	34.1	3	10	112	0.00	30.073 
23:55	48.5	47.1	48.5	57	34.0	4	10	90	0.00	30.073 

CoCoRaHS
IN-AL-39
A2 Web Hosting
Creative Commons License
GoDaddy
search engine by freefind advanced

loaded 2018-11-15 03:05:05 • last modified 2010-11-18 10:43:29
Privacy PolicyDisclaimer
• wx.awcolley.com is powered by PmWiki v.2002016 •
• all content (unless otherwise noted) © 2018 A W Colley